Cowee, North Carolina
Current Conditions -  °F | °C
As of 1:15 PM on Tuesday 21 Oct 2014 (Local Time) from KRHP Reporting Station
Clear Clear  
Wind Chill: 66°   Ceiling: Unl
Heat Index: 66°   Visibility: 10mi
Dew Point: 49°   Wind: 3mph
Humidity: 54%   Direction: 220°SW
Pressure: 29.99"   Gusts: NA
Location:  35.1737°N, 83.4215°W
Report Text: KRHP 211715Z AUTO 22003KT 10SM CLR 19/09 A2999 RMK AO2 T01900094
Loading
Personal Weather Stations






























Interactive Weather Map
Tropical Storm Tracking
New forecast layout! Learn more

10-Day Weather Forecast

Advertisements
Track Severe Weather on mobile